sensor_id;sensor_type;location;lat;lon;timestamp;P1;durP1;ratioP1;P2;durP2;ratioP2
18778;SDS011;9518;51.720;14.384;2022-08-21T00:00:41;1999.90;;;999.90;;
18778;SDS011;9518;51.720;14.384;2022-08-21T00:03:09;1999.90;;;999.90;;
18778;SDS011;9518;51.720;14.384;2022-08-21T00:05:38;1999.90;;;999.90;;
18778;SDS011;9518;51.720;14.384;2022-08-21T00:08:06;1999.90;;;999.90;;
18778;SDS011;9518;51.720;14.384;2022-08-21T00:10:36;1999.90;;;999.90;;
18778;SDS011;9518;51.720;14.384;2022-08-21T00:13:03;1999.90;;;999.90;;
18778;SDS011;9518;51.720;14.384;2022-08-21T00:15:31;1999.90;;;999.90;;
18778;SDS011;9518;51.720;14.384;2022-08-21T00:18:00;1999.90;;;999.90;;
18778;SDS011;9518;51.720;14.384;2022-08-21T00:20:27;1999.90;;;999.90;;
18778;SDS011;9518;51.720;14.384;2022-08-21T00:22:54;1999.90;;;999.90;;
18778;SDS011;9518;51.720;14.384;2022-08-21T00:25:21;1999.90;;;999.90;;
18778;SDS011;9518;51.720;14.384;2022-08-21T00:27:49;1999.90;;;999.90;;
18778;SDS011;9518;51.720;14.384;2022-08-21T00:30:17;1999.90;;;999.90;;
18778;SDS011;9518;51.720;14.384;2022-08-21T00:32:45;1999.90;;;999.90;;
18778;SDS011;9518;51.720;14.384;2022-08-21T00:35:12;1999.90;;;999.90;;
18778;SDS011;9518;51.720;14.384;2022-08-21T00:37:42;1999.90;;;999.90;;
18778;SDS011;9518;51.720;14.384;2022-08-21T00:40:10;1999.90;;;999.90;;
18778;SDS011;9518;51.720;14.384;2022-08-21T00:42:39;1999.90;;;999.90;;
18778;SDS011;9518;51.720;14.384;2022-08-21T00:45:07;1999.90;;;999.90;;
18778;SDS011;9518;51.720;14.384;2022-08-21T00:47:35;1999.90;;;999.90;;
18778;SDS011;9518;51.720;14.384;2022-08-21T00:50:03;1999.90;;;999.90;;
18778;SDS011;9518;51.720;14.384;2022-08-21T00:52:32;1999.90;;;999.90;;
18778;SDS011;9518;51.720;14.384;2022-08-21T00:55:01;1999.90;;;999.90;;
18778;SDS011;9518;51.720;14.384;2022-08-21T00:57:31;1999.90;;;999.90;;
18778;SDS011;9518;51.720;14.384;2022-08-21T01:00:05;1999.90;;;999.90;;
18778;SDS011;9518;51.720;14.384;2022-08-21T01:02:37;1999.90;;;999.90;;
18778;SDS011;9518;51.720;14.384;2022-08-21T01:05:05;1999.90;;;999.90;;
18778;SDS011;9518;51.720;14.384;2022-08-21T01:07:34;1999.90;;;999.90;;
18778;SDS011;9518;51.720;14.384;2022-08-21T01:10:03;1999.90;;;999.90;;
18778;SDS011;9518;51.720;14.384;2022-08-21T01:12:31;1999.90;;;999.90;;
18778;SDS011;9518;51.720;14.384;2022-08-21T01:15:02;1999.90;;;999.90;;
18778;SDS011;9518;51.720;14.384;2022-08-21T01:17:32;1999.90;;;999.90;;
18778;SDS011;9518;51.720;14.384;2022-08-21T01:20:00;1999.90;;;999.90;;
18778;SDS011;9518;51.720;14.384;2022-08-21T01:22:31;1999.90;;;999.90;;
18778;SDS011;9518;51.720;14.384;2022-08-21T01:24:58;1999.90;;;999.90;;
18778;SDS011;9518;51.720;14.384;2022-08-21T01:27:25;1999.90;;;999.90;;
18778;SDS011;9518;51.720;14.384;2022-08-21T01:29:53;1999.90;;;999.90;;
18778;SDS011;9518;51.720;14.384;2022-08-21T01:32:24;1999.90;;;999.90;;
18778;SDS011;9518;51.720;14.384;2022-08-21T01:34:53;1999.90;;;999.90;;
18778;SDS011;9518;51.720;14.384;2022-08-21T01:37:20;1999.90;;;999.90;;
18778;SDS011;9518;51.720;14.384;2022-08-21T01:39:49;1999.90;;;999.90;;
18778;SDS011;9518;51.720;14.384;2022-08-21T01:42:16;1999.90;;;999.90;;
18778;SDS011;9518;51.720;14.384;2022-08-21T01:44:43;1999.90;;;999.90;;
18778;SDS011;9518;51.720;14.384;2022-08-21T01:47:11;1999.90;;;999.90;;
18778;SDS011;9518;51.720;14.384;2022-08-21T01:49:38;1999.90;;;999.90;;
18778;SDS011;9518;51.720;14.384;2022-08-21T01:52:06;1999.90;;;999.90;;
18778;SDS011;9518;51.720;14.384;2022-08-21T01:54:34;1999.90;;;999.90;;
18778;SDS011;9518;51.720;14.384;2022-08-21T01:57:02;1999.90;;;999.90;;
18778;SDS011;9518;51.720;14.384;2022-08-21T01:59:30;1999.90;;;999.90;;
18778;SDS011;9518;51.720;14.384;2022-08-21T02:01:57;1999.90;;;999.90;;
18778;SDS011;9518;51.720;14.384;2022-08-21T02:04:24;1999.90;;;999.90;;
18778;SDS011;9518;51.720;14.384;2022-08-21T02:06:51;1999.90;;;999.90;;
18778;SDS011;9518;51.720;14.384;2022-08-21T02:09:18;1999.90;;;999.90;;
18778;SDS011;9518;51.720;14.384;2022-08-21T02:11:46;1999.90;;;999.90;;
18778;SDS011;9518;51.720;14.384;2022-08-21T02:14:14;1999.90;;;999.90;;
18778;SDS011;9518;51.720;14.384;2022-08-21T02:16:42;1999.90;;;999.90;;
18778;SDS011;9518;51.720;14.384;2022-08-21T02:19:10;1999.90;;;999.90;;
18778;SDS011;9518;51.720;14.384;2022-08-21T02:21:38;1999.90;;;999.90;;
18778;SDS011;9518;51.720;14.384;2022-08-21T02:24:05;1999.90;;;999.90;;
18778;SDS011;9518;51.720;14.384;2022-08-21T02:26:33;1999.90;;;999.90;;
18778;SDS011;9518;51.720;14.384;2022-08-21T02:29:00;1999.90;;;999.90;;
18778;SDS011;9518;51.720;14.384;2022-08-21T02:31:30;1999.90;;;999.90;;
18778;SDS011;9518;51.720;14.384;2022-08-21T02:33:57;1999.90;;;999.90;;
18778;SDS011;9518;51.720;14.384;2022-08-21T02:36:24;1999.90;;;999.90;;
18778;SDS011;9518;51.720;14.384;2022-08-21T02:38:51;1999.90;;;999.90;;
18778;SDS011;9518;51.720;14.384;2022-08-21T02:41:19;1999.90;;;999.90;;
18778;SDS011;9518;51.720;14.384;2022-08-21T02:43:47;1999.90;;;999.90;;
18778;SDS011;9518;51.720;14.384;2022-08-21T02:46:15;1999.90;;;999.90;;
18778;SDS011;9518;51.720;14.384;2022-08-21T02:48:45;1999.90;;;999.90;;
18778;SDS011;9518;51.720;14.384;2022-08-21T02:51:13;1999.90;;;999.90;;
18778;SDS011;9518;51.720;14.384;2022-08-21T02:53:42;1999.90;;;999.90;;
18778;SDS011;9518;51.720;14.384;2022-08-21T02:56:11;1999.90;;;999.90;;
18778;SDS011;9518;51.720;14.384;2022-08-21T02:58:42;1999.90;;;999.90;;
18778;SDS011;9518;51.720;14.384;2022-08-21T03:01:10;1999.90;;;999.90;;
18778;SDS011;9518;51.720;14.384;2022-08-21T03:03:38;1999.90;;;999.90;;
18778;SDS011;9518;51.720;14.384;2022-08-21T03:06:08;1999.90;;;999.90;;
18778;SDS011;9518;51.720;14.384;2022-08-21T03:08:38;1999.90;;;999.90;;
18778;SDS011;9518;51.720;14.384;2022-08-21T03:11:05;1999.90;;;999.90;;
18778;SDS011;9518;51.720;14.384;2022-08-21T03:13:32;1999.90;;;999.90;;
18778;SDS011;9518;51.720;14.384;2022-08-21T03:15:59;1999.90;;;999.90;;
18778;SDS011;9518;51.720;14.384;2022-08-21T03:18:26;1999.90;;;999.90;;
18778;SDS011;9518;51.720;14.384;2022-08-21T03:20:53;1999.90;;;999.90;;
18778;SDS011;9518;51.720;14.384;2022-08-21T03:23:22;1999.90;;;999.90;;
18778;SDS011;9518;51.720;14.384;2022-08-21T03:25:49;1999.90;;;999.90;;
18778;SDS011;9518;51.720;14.384;2022-08-21T03:28:17;1999.90;;;999.90;;
18778;SDS011;9518;51.720;14.384;2022-08-21T03:30:46;1999.90;;;999.90;;
18778;SDS011;9518;51.720;14.384;2022-08-21T03:33:14;1999.90;;;999.90;;
18778;SDS011;9518;51.720;14.384;2022-08-21T03:35:41;1999.90;;;999.90;;
18778;SDS011;9518;51.720;14.384;2022-08-21T03:38:10;1999.90;;;999.90;;
18778;SDS011;9518;51.720;14.384;2022-08-21T03:40:40;1999.90;;;999.90;;
18778;SDS011;9518;51.720;14.384;2022-08-21T03:43:07;1999.90;;;999.90;;
18778;SDS011;9518;51.720;14.384;2022-08-21T03:45:34;1999.90;;;999.90;;
18778;SDS011;9518;51.720;14.384;2022-08-21T03:48:02;1999.90;;;999.90;;
18778;SDS011;9518;51.720;14.384;2022-08-21T03:50:31;1999.90;;;999.90;;
18778;SDS011;9518;51.720;14.384;2022-08-21T03:52:59;1999.90;;;999.90;;
18778;SDS011;9518;51.720;14.384;2022-08-21T03:55:26;1999.90;;;999.90;;
18778;SDS011;9518;51.720;14.384;2022-08-21T03:57:55;1999.90;;;999.90;;
18778;SDS011;9518;51.720;14.384;2022-08-21T04:00:22;1999.90;;;999.90;;
18778;SDS011;9518;51.720;14.384;2022-08-21T04:02:50;1999.90;;;999.90;;
18778;SDS011;9518;51.720;14.384;2022-08-21T04:05:18;1999.90;;;999.90;;
18778;SDS011;9518;51.720;14.384;2022-08-21T04:07:53;1999.90;;;999.90;;
18778;SDS011;9518;51.720;14.384;2022-08-21T04:10:21;1999.90;;;999.90;;
18778;SDS011;9518;51.720;14.384;2022-08-21T04:12:50;1999.90;;;999.90;;
18778;SDS011;9518;51.720;14.384;2022-08-21T04:15:19;1999.90;;;999.90;;
18778;SDS011;9518;51.720;14.384;2022-08-21T04:17:46;1999.90;;;999.90;;
18778;SDS011;9518;51.720;14.384;2022-08-21T04:20:14;1999.90;;;999.90;;
18778;SDS011;9518;51.720;14.384;2022-08-21T04:22:41;1999.90;;;999.90;;
18778;SDS011;9518;51.720;14.384;2022-08-21T04:25:09;1999.90;;;999.90;;
18778;SDS011;9518;51.720;14.384;2022-08-21T04:27:36;1999.90;;;999.90;;
18778;SDS011;9518;51.720;14.384;2022-08-21T04:30:04;1999.90;;;999.90;;
18778;SDS011;9518;51.720;14.384;2022-08-21T04:32:33;1999.90;;;999.90;;
18778;SDS011;9518;51.720;14.384;2022-08-21T04:35:01;1999.90;;;999.90;;
18778;SDS011;9518;51.720;14.384;2022-08-21T04:37:29;1999.90;;;999.90;;
18778;SDS011;9518;51.720;14.384;2022-08-21T04:39:56;1999.90;;;999.90;;
18778;SDS011;9518;51.720;14.384;2022-08-21T04:42:23;1999.90;;;999.90;;
18778;SDS011;9518;51.720;14.384;2022-08-21T04:44:51;1999.90;;;999.90;;
18778;SDS011;9518;51.720;14.384;2022-08-21T04:47:18;1999.90;;;999.90;;
18778;SDS011;9518;51.720;14.384;2022-08-21T04:49:47;1999.90;;;999.90;;
18778;SDS011;9518;51.720;14.384;2022-08-21T04:52:15;1999.90;;;999.90;;
18778;SDS011;9518;51.720;14.384;2022-08-21T04:54:46;1999.90;;;999.90;;
18778;SDS011;9518;51.720;14.384;2022-08-21T04:57:15;1999.90;;;999.90;;
18778;SDS011;9518;51.720;14.384;2022-08-21T04:59:43;1999.90;;;999.90;;
18778;SDS011;9518;51.720;14.384;2022-08-21T05:02:11;1999.90;;;999.90;;
18778;SDS011;9518;51.720;14.384;2022-08-21T05:04:40;1999.90;;;999.90;;
18778;SDS011;9518;51.720;14.384;2022-08-21T05:07:11;1999.90;;;999.90;;
18778;SDS011;9518;51.720;14.384;2022-08-21T05:09:41;1999.90;;;999.90;;
18778;SDS011;9518;51.720;14.384;2022-08-21T05:12:08;1999.90;;;999.90;;
18778;SDS011;9518;51.720;14.384;2022-08-21T05:14:35;1999.90;;;999.90;;
18778;SDS011;9518;51.720;14.384;2022-08-21T05:17:03;1999.90;;;999.90;;
18778;SDS011;9518;51.720;14.384;2022-08-21T05:19:30;1999.90;;;999.90;;
18778;SDS011;9518;51.720;14.384;2022-08-21T05:21:57;1999.90;;;999.90;;
18778;SDS011;9518;51.720;14.384;2022-08-21T05:24:27;1999.90;;;999.90;;
18778;SDS011;9518;51.720;14.384;2022-08-21T05:26:54;1999.90;;;999.90;;
18778;SDS011;9518;51.720;14.384;2022-08-21T05:29:21;1999.90;;;999.90;;
18778;SDS011;9518;51.720;14.384;2022-08-21T05:31:48;1999.90;;;999.90;;
18778;SDS011;9518;51.720;14.384;2022-08-21T05:34:17;1999.90;;;999.90;;
18778;SDS011;9518;51.720;14.384;2022-08-21T05:36:45;1999.90;;;999.90;;
18778;SDS011;9518;51.720;14.384;2022-08-21T05:39:12;1999.90;;;999.90;;
18778;SDS011;9518;51.720;14.384;2022-08-21T05:41:40;1999.90;;;999.90;;
18778;SDS011;9518;51.720;14.384;2022-08-21T05:44:07;1999.90;;;999.90;;
18778;SDS011;9518;51.720;14.384;2022-08-21T05:46:34;1999.90;;;999.90;;
18778;SDS011;9518;51.720;14.384;2022-08-21T05:49:01;1999.90;;;999.90;;
18778;SDS011;9518;51.720;14.384;2022-08-21T05:51:28;1999.90;;;999.90;;
18778;SDS011;9518;51.720;14.384;2022-08-21T05:53:56;1999.90;;;999.90;;
18778;SDS011;9518;51.720;14.384;2022-08-21T05:56:23;1999.90;;;999.90;;
18778;SDS011;9518;51.720;14.384;2022-08-21T05:58:51;1999.90;;;999.90;;
18778;SDS011;9518;51.720;14.384;2022-08-21T06:01:18;1999.90;;;999.90;;
18778;SDS011;9518;51.720;14.384;2022-08-21T06:03:45;1999.90;;;999.90;;
18778;SDS011;9518;51.720;14.384;2022-08-21T06:06:12;1999.90;;;999.90;;
18778;SDS011;9518;51.720;14.384;2022-08-21T06:08:39;1999.90;;;999.90;;
18778;SDS011;9518;51.720;14.384;2022-08-21T06:11:06;1999.90;;;999.90;;
18778;SDS011;9518;51.720;14.384;2022-08-21T06:13:34;1999.90;;;999.90;;
18778;SDS011;9518;51.720;14.384;2022-08-21T06:16:03;1999.90;;;999.90;;
18778;SDS011;9518;51.720;14.384;2022-08-21T06:18:32;1999.90;;;999.90;;
18778;SDS011;9518;51.720;14.384;2022-08-21T06:21:00;1999.90;;;999.90;;
18778;SDS011;9518;51.720;14.384;2022-08-21T06:23:27;1999.90;;;999.90;;
18778;SDS011;9518;51.720;14.384;2022-08-21T06:25:54;1999.90;;;999.90;;
18778;SDS011;9518;51.720;14.384;2022-08-21T06:28:21;1999.90;;;999.90;;
18778;SDS011;9518;51.720;14.384;2022-08-21T06:30:48;1999.90;;;999.90;;
18778;SDS011;9518;51.720;14.384;2022-08-21T06:33:16;1999.90;;;999.90;;
18778;SDS011;9518;51.720;14.384;2022-08-21T06:35:43;1999.90;;;999.90;;
18778;SDS011;9518;51.720;14.384;2022-08-21T06:38:10;1999.90;;;999.90;;
18778;SDS011;9518;51.720;14.384;2022-08-21T06:40:37;1999.90;;;999.90;;
18778;SDS011;9518;51.720;14.384;2022-08-21T06:43:05;1999.90;;;999.90;;
18778;SDS011;9518;51.720;14.384;2022-08-21T06:45:33;1999.90;;;999.90;;
18778;SDS011;9518;51.720;14.384;2022-08-21T06:48:00;1999.90;;;999.90;;
18778;SDS011;9518;51.720;14.384;2022-08-21T06:50:29;1999.90;;;999.90;;
18778;SDS011;9518;51.720;14.384;2022-08-21T06:53:01;1999.90;;;999.90;;
18778;SDS011;9518;51.720;14.384;2022-08-21T06:55:29;1999.90;;;999.90;;
18778;SDS011;9518;51.720;14.384;2022-08-21T06:57:56;1999.90;;;999.90;;
18778;SDS011;9518;51.720;14.384;2022-08-21T07:00:23;1999.90;;;999.90;;
18778;SDS011;9518;51.720;14.384;2022-08-21T07:02:51;1999.90;;;999.90;;
18778;SDS011;9518;51.720;14.384;2022-08-21T07:05:18;1999.90;;;999.90;;
18778;SDS011;9518;51.720;14.384;2022-08-21T07:07:46;1999.90;;;999.90;;
18778;SDS011;9518;51.720;14.384;2022-08-21T07:10:13;1999.90;;;999.90;;
18778;SDS011;9518;51.720;14.384;2022-08-21T07:12:41;1999.90;;;999.90;;
18778;SDS011;9518;51.720;14.384;2022-08-21T07:15:08;1999.90;;;999.90;;
18778;SDS011;9518;51.720;14.384;2022-08-21T07:17:36;1999.90;;;999.90;;
18778;SDS011;9518;51.720;14.384;2022-08-21T07:20:03;1999.90;;;999.90;;
18778;SDS011;9518;51.720;14.384;2022-08-21T07:22:31;1999.90;;;999.90;;
18778;SDS011;9518;51.720;14.384;2022-08-21T07:24:59;1999.90;;;999.90;;
18778;SDS011;9518;51.720;14.384;2022-08-21T07:27:26;1999.90;;;999.90;;
18778;SDS011;9518;51.720;14.384;2022-08-21T07:29:53;1999.90;;;999.90;;
18778;SDS011;9518;51.720;14.384;2022-08-21T07:32:20;1999.90;;;999.90;;
18778;SDS011;9518;51.720;14.384;2022-08-21T07:34:47;1999.90;;;999.90;;
18778;SDS011;9518;51.720;14.384;2022-08-21T07:37:14;1999.90;;;999.90;;
18778;SDS011;9518;51.720;14.384;2022-08-21T07:39:41;1999.90;;;999.90;;
18778;SDS011;9518;51.720;14.384;2022-08-21T07:42:10;1999.90;;;999.90;;
18778;SDS011;9518;51.720;14.384;2022-08-21T07:44:37;1999.90;;;999.90;;
18778;SDS011;9518;51.720;14.384;2022-08-21T07:47:04;1601.93;;;839.33;;
18778;SDS011;9518;51.720;14.384;2022-08-21T07:49:31;1552.73;;;801.07;;
18778;SDS011;9518;51.720;14.384;2022-08-21T07:51:58;1172.57;;;825.83;;
18778;SDS011;9518;51.720;14.384;2022-08-21T07:54:24;1382.30;;;999.90;;
18778;SDS011;9518;51.720;14.384;2022-08-21T07:56:52;733.33;;;673.40;;
18778;SDS011;9518;51.720;14.384;2022-08-21T07:59:20;200.33;;;188.20;;
18778;SDS011;9518;51.720;14.384;2022-08-21T08:01:47;827.37;;;764.10;;
18778;SDS011;9518;51.720;14.384;2022-08-21T08:04:14;267.13;;;251.23;;
18778;SDS011;9518;51.720;14.384;2022-08-21T08:06:41;257.70;;;244.27;;
18778;SDS011;9518;51.720;14.384;2022-08-21T08:09:08;325.40;;;306.70;;
18778;SDS011;9518;51.720;14.384;2022-08-21T08:11:35;726.50;;;673.77;;
18778;SDS011;9518;51.720;14.384;2022-08-21T08:14:04;1257.37;;;874.07;;
18778;SDS011;9518;51.720;14.384;2022-08-21T08:16:32;940.47;;;863.30;;
18778;SDS011;9518;51.720;14.384;2022-08-21T08:18:59;908.87;;;837.70;;
18778;SDS011;9518;51.720;14.384;2022-08-21T08:21:26;919.60;;;838.53;;
18778;SDS011;9518;51.720;14.384;2022-08-21T08:23:53;965.80;;;883.23;;
18778;SDS011;9518;51.720;14.384;2022-08-21T08:26:20;996.43;;;909.03;;
18778;SDS011;9518;51.720;14.384;2022-08-21T08:28:47;1999.90;;;999.90;;
18778;SDS011;9518;51.720;14.384;2022-08-21T08:31:14;1007.57;;;919.73;;
18778;SDS011;9518;51.720;14.384;2022-08-21T08:33:43;946.17;;;868.43;;
18778;SDS011;9518;51.720;14.384;2022-08-21T08:36:13;1042.43;;;944.47;;
18778;SDS011;9518;51.720;14.384;2022-08-21T08:38:41;934.73;;;834.80;;
18778;SDS011;9518;51.720;14.384;2022-08-21T08:41:10;1999.90;;;999.90;;
18778;SDS011;9518;51.720;14.384;2022-08-21T08:43:39;1999.90;;;999.90;;
18778;SDS011;9518;51.720;14.384;2022-08-21T08:46:10;1999.90;;;999.90;;
18778;SDS011;9518;51.720;14.384;2022-08-21T08:48:46;1494.00;;;802.53;;
18778;SDS011;9518;51.720;14.384;2022-08-21T08:51:18;1999.90;;;999.90;;
18778;SDS011;9518;51.720;14.384;2022-08-21T08:53:51;1999.90;;;999.90;;
18778;SDS011;9518;51.720;14.384;2022-08-21T08:56:22;1999.90;;;999.90;;
18778;SDS011;9518;51.720;14.384;2022-08-21T08:58:54;408.07;;;351.57;;
18778;SDS011;9518;51.720;14.384;2022-08-21T09:01:26;1999.90;;;999.90;;
18778;SDS011;9518;51.720;14.384;2022-08-21T09:03:54;1151.57;;;621.00;;
18778;SDS011;9518;51.720;14.384;2022-08-21T09:06:27;1999.90;;;999.90;;
18778;SDS011;9518;51.720;14.384;2022-08-21T09:09:02;1999.90;;;999.90;;
18778;SDS011;9518;51.720;14.384;2022-08-21T09:11:40;1999.90;;;999.90;;
18778;SDS011;9518;51.720;14.384;2022-08-21T09:14:14;1999.90;;;999.90;;
18778;SDS011;9518;51.720;14.384;2022-08-21T09:17:01;1999.90;;;999.90;;
18778;SDS011;9518;51.720;14.384;2022-08-21T09:19:39;1999.90;;;999.90;;
18778;SDS011;9518;51.720;14.384;2022-08-21T09:22:23;1999.90;;;999.90;;
18778;SDS011;9518;51.720;14.384;2022-08-21T09:24:59;1999.90;;;999.90;;
18778;SDS011;9518;51.720;14.384;2022-08-21T09:27:33;1999.90;;;999.90;;
18778;SDS011;9518;51.720;14.384;2022-08-21T09:30:00;1999.90;;;999.90;;
18778;SDS011;9518;51.720;14.384;2022-08-21T09:32:28;1999.90;;;999.90;;
18778;SDS011;9518;51.720;14.384;2022-08-21T09:35:01;1999.90;;;999.90;;
18778;SDS011;9518;51.720;14.384;2022-08-21T09:37:32;1999.90;;;999.90;;
18778;SDS011;9518;51.720;14.384;2022-08-21T09:40:13;1999.90;;;999.90;;
18778;SDS011;9518;51.720;14.384;2022-08-21T09:42:52;1999.90;;;999.90;;
18778;SDS011;9518;51.720;14.384;2022-08-21T09:45:21;1999.90;;;999.90;;
18778;SDS011;9518;51.720;14.384;2022-08-21T09:47:48;1999.90;;;999.90;;
18778;SDS011;9518;51.720;14.384;2022-08-21T09:50:17;1999.90;;;999.90;;
18778;SDS011;9518;51.720;14.384;2022-08-21T09:52:48;1999.90;;;999.90;;
18778;SDS011;9518;51.720;14.384;2022-08-21T09:55:18;1999.90;;;999.90;;
18778;SDS011;9518;51.720;14.384;2022-08-21T09:58:06;1999.90;;;999.90;;
18778;SDS011;9518;51.720;14.384;2022-08-21T10:00:34;1999.90;;;999.90;;
18778;SDS011;9518;51.720;14.384;2022-08-21T10:03:09;1999.90;;;999.90;;
18778;SDS011;9518;51.720;14.384;2022-08-21T10:05:39;1999.90;;;999.90;;
18778;SDS011;9518;51.720;14.384;2022-08-21T10:08:16;1999.90;;;999.90;;
18778;SDS011;9518;51.720;14.384;2022-08-21T10:10:44;1999.90;;;999.90;;
18778;SDS011;9518;51.720;14.384;2022-08-21T10:13:16;1999.90;;;999.90;;
18778;SDS011;9518;51.720;14.384;2022-08-21T10:15:50;1999.90;;;999.90;;
18778;SDS011;9518;51.720;14.384;2022-08-21T10:18:27;1999.90;;;999.90;;
18778;SDS011;9518;51.720;14.384;2022-08-21T10:21:04;1999.90;;;999.90;;
18778;SDS011;9518;51.720;14.384;2022-08-21T10:23:41;1999.90;;;999.90;;
18778;SDS011;9518;51.720;14.384;2022-08-21T10:26:20;1999.90;;;999.90;;
18778;SDS011;9518;51.720;14.384;2022-08-21T10:28:59;1999.90;;;999.90;;
18778;SDS011;9518;51.720;14.384;2022-08-21T10:31:36;1999.90;;;999.90;;
18778;SDS011;9518;51.720;14.384;2022-08-21T10:34:14;1999.90;;;999.90;;
18778;SDS011;9518;51.720;14.384;2022-08-21T10:36:52;1999.90;;;999.90;;
18778;SDS011;9518;51.720;14.384;2022-08-21T10:39:29;1999.90;;;999.90;;
18778;SDS011;9518;51.720;14.384;2022-08-21T10:42:11;1999.90;;;999.90;;
18778;SDS011;9518;51.720;14.384;2022-08-21T10:45:07;1999.90;;;999.90;;
18778;SDS011;9518;51.720;14.384;2022-08-21T10:47:41;1999.90;;;999.90;;
18778;SDS011;9518;51.720;14.384;2022-08-21T10:50:13;1999.90;;;999.90;;
18778;SDS011;9518;51.720;14.384;2022-08-21T10:56:02;1999.90;;;999.90;;
18778;SDS011;9518;51.720;14.384;2022-08-21T10:58:44;1999.90;;;999.90;;
18778;SDS011;9518;51.720;14.384;2022-08-21T11:01:18;1999.90;;;999.90;;
18778;SDS011;9518;51.720;14.384;2022-08-21T11:03:50;1999.90;;;999.90;;
18778;SDS011;9518;51.720;14.384;2022-08-21T11:06:21;1999.90;;;999.90;;
18778;SDS011;9518;51.720;14.384;2022-08-21T11:08:52;1999.90;;;999.90;;
18778;SDS011;9518;51.720;14.384;2022-08-21T11:11:25;1999.90;;;999.90;;
18778;SDS011;9518;51.720;14.384;2022-08-21T11:13:55;1999.90;;;999.90;;
18778;SDS011;9518;51.720;14.384;2022-08-21T11:16:29;1999.90;;;999.90;;
18778;SDS011;9518;51.720;14.384;2022-08-21T11:19:04;1999.90;;;999.90;;
18778;SDS011;9518;51.720;14.384;2022-08-21T11:21:37;1999.90;;;999.90;;
18778;SDS011;9518;51.720;14.384;2022-08-21T11:24:17;1999.90;;;999.90;;
18778;SDS011;9518;51.720;14.384;2022-08-21T11:26:57;1999.90;;;999.90;;
18778;SDS011;9518;51.720;14.384;2022-08-21T11:29:30;1999.90;;;999.90;;
18778;SDS011;9518;51.720;14.384;2022-08-21T11:32:06;1999.90;;;999.90;;
18778;SDS011;9518;51.720;14.384;2022-08-21T11:34:52;1999.90;;;999.90;;
18778;SDS011;9518;51.720;14.384;2022-08-21T11:37:27;1999.90;;;999.90;;
18778;SDS011;9518;51.720;14.384;2022-08-21T11:40:10;1999.90;;;999.90;;
18778;SDS011;9518;51.720;14.384;2022-08-21T11:42:55;1999.90;;;999.90;;
18778;SDS011;9518;51.720;14.384;2022-08-21T11:45:32;1999.90;;;999.90;;
18778;SDS011;9518;51.720;14.384;2022-08-21T11:48:07;1999.90;;;999.90;;
18778;SDS011;9518;51.720;14.384;2022-08-21T11:50:46;1999.90;;;999.90;;
18778;SDS011;9518;51.720;14.384;2022-08-21T11:53:16;1999.90;;;999.90;;
18778;SDS011;9518;51.720;14.384;2022-08-21T11:55:48;1999.90;;;999.90;;
18778;SDS011;9518;51.720;14.384;2022-08-21T11:58:22;1999.90;;;999.90;;
18778;SDS011;9518;51.720;14.384;2022-08-21T12:00:54;1999.90;;;999.90;;
18778;SDS011;9518;51.720;14.384;2022-08-21T12:03:25;1999.90;;;999.90;;
18778;SDS011;9518;51.720;14.384;2022-08-21T12:05:55;1999.90;;;999.90;;
18778;SDS011;9518;51.720;14.384;2022-08-21T12:08:28;1999.90;;;999.90;;
18778;SDS011;9518;51.720;14.384;2022-08-21T12:11:02;1999.90;;;999.90;;
18778;SDS011;9518;51.720;14.384;2022-08-21T12:13:33;1999.90;;;999.90;;
18778;SDS011;9518;51.720;14.384;2022-08-21T12:16:06;1999.90;;;999.90;;
18778;SDS011;9518;51.720;14.384;2022-08-21T12:18:34;1999.90;;;999.90;;
18778;SDS011;9518;51.720;14.384;2022-08-21T12:21:05;1999.90;;;999.90;;
18778;SDS011;9518;51.720;14.384;2022-08-21T12:23:59;1999.90;;;999.90;;
18778;SDS011;9518;51.720;14.384;2022-08-21T12:26:34;1999.90;;;999.90;;
18778;SDS011;9518;51.720;14.384;2022-08-21T12:29:16;1999.90;;;999.90;;
18778;SDS011;9518;51.720;14.384;2022-08-21T12:31:50;1999.90;;;999.90;;
18778;SDS011;9518;51.720;14.384;2022-08-21T12:34:23;1999.90;;;999.90;;
18778;SDS011;9518;51.720;14.384;2022-08-21T12:36:57;1999.90;;;999.90;;
18778;SDS011;9518;51.720;14.384;2022-08-21T12:39:27;1999.90;;;999.90;;
18778;SDS011;9518;51.720;14.384;2022-08-21T12:41:59;1999.90;;;999.90;;
18778;SDS011;9518;51.720;14.384;2022-08-21T12:44:33;1999.90;;;999.90;;
18778;SDS011;9518;51.720;14.384;2022-08-21T12:47:05;1999.90;;;999.90;;
18778;SDS011;9518;51.720;14.384;2022-08-21T12:49:42;1999.90;;;999.90;;
18778;SDS011;9518;51.720;14.384;2022-08-21T12:52:19;1999.90;;;999.90;;
18778;SDS011;9518;51.720;14.384;2022-08-21T12:54:48;1999.90;;;999.90;;
18778;SDS011;9518;51.720;14.384;2022-08-21T12:57:20;1999.90;;;999.90;;
18778;SDS011;9518;51.720;14.384;2022-08-21T12:59:53;1999.90;;;999.90;;
18778;SDS011;9518;51.720;14.384;2022-08-21T13:02:23;1999.90;;;999.90;;
18778;SDS011;9518;51.720;14.384;2022-08-21T13:04:52;1999.90;;;999.90;;
18778;SDS011;9518;51.720;14.384;2022-08-21T13:07:22;1999.90;;;999.90;;
18778;SDS011;9518;51.720;14.384;2022-08-21T13:09:55;1999.90;;;999.90;;
18778;SDS011;9518;51.720;14.384;2022-08-21T13:12:25;1999.90;;;999.90;;
18778;SDS011;9518;51.720;14.384;2022-08-21T13:14:55;1999.90;;;999.90;;
18778;SDS011;9518;51.720;14.384;2022-08-21T13:17:25;1999.90;;;999.90;;
18778;SDS011;9518;51.720;14.384;2022-08-21T13:19:53;1999.90;;;999.90;;
18778;SDS011;9518;51.720;14.384;2022-08-21T13:22:22;1999.90;;;999.90;;
18778;SDS011;9518;51.720;14.384;2022-08-21T13:24:50;1999.90;;;999.90;;
18778;SDS011;9518;51.720;14.384;2022-08-21T13:27:19;1999.90;;;999.90;;
18778;SDS011;9518;51.720;14.384;2022-08-21T13:29:59;1999.90;;;999.90;;
18778;SDS011;9518;51.720;14.384;2022-08-21T13:32:30;1999.90;;;999.90;;
18778;SDS011;9518;51.720;14.384;2022-08-21T13:34:59;1999.90;;;999.90;;
18778;SDS011;9518;51.720;14.384;2022-08-21T13:37:35;1999.90;;;999.90;;
18778;SDS011;9518;51.720;14.384;2022-08-21T13:40:06;1999.90;;;999.90;;
18778;SDS011;9518;51.720;14.384;2022-08-21T13:42:38;1999.90;;;999.90;;
18778;SDS011;9518;51.720;14.384;2022-08-21T13:45:12;1999.90;;;999.90;;
18778;SDS011;9518;51.720;14.384;2022-08-21T13:47:41;1999.90;;;999.90;;
18778;SDS011;9518;51.720;14.384;2022-08-21T13:50:09;1999.90;;;999.90;;
18778;SDS011;9518;51.720;14.384;2022-08-21T13:52:46;1999.90;;;999.90;;
18778;SDS011;9518;51.720;14.384;2022-08-21T13:55:19;1999.90;;;999.90;;
18778;SDS011;9518;51.720;14.384;2022-08-21T13:57:46;1999.90;;;999.90;;
18778;SDS011;9518;51.720;14.384;2022-08-21T14:00:19;1999.90;;;999.90;;
18778;SDS011;9518;51.720;14.384;2022-08-21T14:02:52;1999.90;;;999.90;;
18778;SDS011;9518;51.720;14.384;2022-08-21T14:05:22;1999.90;;;999.90;;